sensor_id;sensor_type;location;lat;lon;timestamp;temperature;humidity
74968;SHT30;63523;51.880;12.630;2023-02-01T00:01:09;5.89;72.24
74968;SHT30;63523;51.880;12.630;2023-02-01T00:03:35;5.80;72.24
74968;SHT30;63523;51.880;12.630;2023-02-01T00:06:02;5.80;72.23
74968;SHT30;63523;51.880;12.630;2023-02-01T00:08:28;5.69;73.22
74968;SHT30;63523;51.880;12.630;2023-02-01T00:11:12;5.62;73.67
74968;SHT30;63523;51.880;12.630;2023-02-01T00:13:40;5.46;73.93
74968;SHT30;63523;51.880;12.630;2023-02-01T00:18:43;5.55;73.78
74968;SHT30;63523;51.880;12.630;2023-02-01T00:21:14;5.59;73.05
74968;SHT30;63523;51.880;12.630;2023-02-01T00:23:40;5.45;74.09
74968;SHT30;63523;51.880;12.630;2023-02-01T00:26:13;5.38;73.95
74968;SHT30;63523;51.880;12.630;2023-02-01T00:28:39;5.25;75.13
74968;SHT30;63523;51.880;12.630;2023-02-01T00:31:05;5.39;74.01
74968;SHT30;63523;51.880;12.630;2023-02-01T00:33:32;5.38;74.09
74968;SHT30;63523;51.880;12.630;2023-02-01T00:35:58;5.20;74.96
74968;SHT30;63523;51.880;12.630;2023-02-01T00:38:25;5.25;74.69
74968;SHT30;63523;51.880;12.630;2023-02-01T00:40:51;5.18;74.85
74968;SHT30;63523;51.880;12.630;2023-02-01T00:43:16;5.30;74.28
74968;SHT30;63523;51.880;12.630;2023-02-01T00:45:42;5.41;73.92
74968;SHT30;63523;51.880;12.630;2023-02-01T00:48:07;5.45;74.07
74968;SHT30;63523;51.880;12.630;2023-02-01T00:50:33;5.56;73.12
74968;SHT30;63523;51.880;12.630;2023-02-01T00:52:58;5.39;73.69
74968;SHT30;63523;51.880;12.630;2023-02-01T00:55:24;5.41;73.84
74968;SHT30;63523;51.880;12.630;2023-02-01T00:57:50;5.52;73.35
74968;SHT30;63523;51.880;12.630;2023-02-01T01:00:17;5.58;72.81
74968;SHT30;63523;51.880;12.630;2023-02-01T01:02:42;5.60;72.61
74968;SHT30;63523;51.880;12.630;2023-02-01T01:05:08;5.39;73.97
74968;SHT30;63523;51.880;12.630;2023-02-01T01:07:33;5.52;72.83
74968;SHT30;63523;51.880;12.630;2023-02-01T01:09:59;5.43;73.55
74968;SHT30;63523;51.880;12.630;2023-02-01T01:12:25;5.46;73.56
74968;SHT30;63523;51.880;12.630;2023-02-01T01:14:50;5.41;73.35
74968;SHT30;63523;51.880;12.630;2023-02-01T01:17:16;5.39;73.44
74968;SHT30;63523;51.880;12.630;2023-02-01T01:19:41;5.41;73.39
74968;SHT30;63523;51.880;12.630;2023-02-01T01:22:07;5.31;73.92
74968;SHT30;63523;51.880;12.630;2023-02-01T01:24:32;5.38;73.30
74968;SHT30;63523;51.880;12.630;2023-02-01T01:26:58;5.39;73.31
74968;SHT30;63523;51.880;12.630;2023-02-01T01:29:23;5.48;73.21
74968;SHT30;63523;51.880;12.630;2023-02-01T01:31:49;5.34;73.81
74968;SHT30;63523;51.880;12.630;2023-02-01T01:34:14;5.38;73.57
74968;SHT30;63523;51.880;12.630;2023-02-01T01:36:40;5.31;74.06
74968;SHT30;63523;51.880;12.630;2023-02-01T01:39:05;5.24;74.51
74968;SHT30;63523;51.880;12.630;2023-02-01T01:41:31;5.30;74.52
74968;SHT30;63523;51.880;12.630;2023-02-01T01:44:00;5.23;74.48
74968;SHT30;63523;51.880;12.630;2023-02-01T01:46:29;5.20;74.96
74968;SHT30;63523;51.880;12.630;2023-02-01T01:49:00;5.18;74.83
74968;SHT30;63523;51.880;12.630;2023-02-01T01:51:28;5.30;74.39
74968;SHT30;63523;51.880;12.630;2023-02-01T01:54:09;5.30;74.36
74968;SHT30;63523;51.880;12.630;2023-02-01T01:56:37;5.27;74.39
74968;SHT30;63523;51.880;12.630;2023-02-01T01:59:04;5.14;75.22
74968;SHT30;63523;51.880;12.630;2023-02-01T02:01:31;5.07;75.33
74968;SHT30;63523;51.880;12.630;2023-02-01T02:03:57;5.00;75.89
74968;SHT30;63523;51.880;12.630;2023-02-01T02:06:28;4.93;76.24
74968;SHT30;63523;51.880;12.630;2023-02-01T02:08:56;5.01;76.04
74968;SHT30;63523;51.880;12.630;2023-02-01T02:11:22;5.07;76.17
74968;SHT30;63523;51.880;12.630;2023-02-01T02:13:52;5.10;76.42
74968;SHT30;63523;51.880;12.630;2023-02-01T02:22:12;5.30;75.21
74968;SHT30;63523;51.880;12.630;2023-02-01T02:38:29;5.42;75.22
74968;SHT30;63523;51.880;12.630;2023-02-01T02:43:41;5.53;74.90
74968;SHT30;63523;51.880;12.630;2023-02-01T02:46:39;5.46;75.13
74968;SHT30;63523;51.880;12.630;2023-02-01T02:49:35;5.52;75.07
74968;SHT30;63523;51.880;12.630;2023-02-01T02:52:06;5.55;75.20
74968;SHT30;63523;51.880;12.630;2023-02-01T02:54:53;5.53;75.06
74968;SHT30;63523;51.880;12.630;2023-02-01T02:57:28;5.46;75.08
74968;SHT30;63523;51.880;12.630;2023-02-01T03:00:19;5.43;75.37
74968;SHT30;63523;51.880;12.630;2023-02-01T03:03:04;5.51;74.78
74968;SHT30;63523;51.880;12.630;2023-02-01T03:05:49;5.52;75.14
74968;SHT30;63523;51.880;12.630;2023-02-01T03:08:26;5.48;75.06
74968;SHT30;63523;51.880;12.630;2023-02-01T03:11:00;5.49;75.04
74968;SHT30;63523;51.880;12.630;2023-02-01T03:18:44;5.51;74.78
74968;SHT30;63523;51.880;12.630;2023-02-01T03:21:16;5.49;74.71
74968;SHT30;63523;51.880;12.630;2023-02-01T03:23:44;5.49;75.47
74968;SHT30;63523;51.880;12.630;2023-02-01T03:26:13;5.55;74.72
74968;SHT30;63523;51.880;12.630;2023-02-01T03:28:51;5.55;74.48
74968;SHT30;63523;51.880;12.630;2023-02-01T03:31:18;5.52;74.75
74968;SHT30;63523;51.880;12.630;2023-02-01T03:33:43;5.53;75.12
74968;SHT30;63523;51.880;12.630;2023-02-01T03:36:16;5.46;75.54
74968;SHT30;63523;51.880;12.630;2023-02-01T03:38:52;5.56;74.62
74968;SHT30;63523;51.880;12.630;2023-02-01T03:46:23;5.58;74.08
74968;SHT30;63523;51.880;12.630;2023-02-01T03:48:51;5.62;74.71
74968;SHT30;63523;51.880;12.630;2023-02-01T03:51:19;5.66;74.36
74968;SHT30;63523;51.880;12.630;2023-02-01T03:53:46;5.55;74.84
74968;SHT30;63523;51.880;12.630;2023-02-01T03:56:15;5.59;74.44
74968;SHT30;63523;51.880;12.630;2023-02-01T03:58:43;5.77;73.36
74968;SHT30;63523;51.880;12.630;2023-02-01T04:01:23;5.79;73.75
74968;SHT30;63523;51.880;12.630;2023-02-01T04:03:49;5.71;73.85
74968;SHT30;63523;51.880;12.630;2023-02-01T04:06:16;5.74;73.12
74968;SHT30;63523;51.880;12.630;2023-02-01T04:08:42;5.77;73.20
74968;SHT30;63523;51.880;12.630;2023-02-01T04:11:07;5.81;72.91
74968;SHT30;63523;51.880;12.630;2023-02-01T04:13:33;5.81;73.37
74968;SHT30;63523;51.880;12.630;2023-02-01T04:15:58;5.80;72.99
74968;SHT30;63523;51.880;12.630;2023-02-01T04:18:24;5.87;73.24
74968;SHT30;63523;51.880;12.630;2023-02-01T04:20:49;5.86;73.19
74968;SHT30;63523;51.880;12.630;2023-02-01T04:23:15;5.93;72.76
74968;SHT30;63523;51.880;12.630;2023-02-01T04:25:41;5.91;72.91
74968;SHT30;63523;51.880;12.630;2023-02-01T04:28:06;5.89;72.81
74968;SHT30;63523;51.880;12.630;2023-02-01T04:30:32;5.80;72.75
74968;SHT30;63523;51.880;12.630;2023-02-01T04:32:58;5.83;72.51
74968;SHT30;63523;51.880;12.630;2023-02-01T04:35:23;5.87;72.57
74968;SHT30;63523;51.880;12.630;2023-02-01T04:37:48;5.89;72.54
74968;SHT30;63523;51.880;12.630;2023-02-01T04:40:14;5.90;71.94
74968;SHT30;63523;51.880;12.630;2023-02-01T04:42:39;5.94;72.60
74968;SHT30;63523;51.880;12.630;2023-02-01T04:45:05;5.94;72.10
74968;SHT30;63523;51.880;12.630;2023-02-01T04:47:31;6.01;71.71
74968;SHT30;63523;51.880;12.630;2023-02-01T04:49:56;6.00;71.59
74968;SHT30;63523;51.880;12.630;2023-02-01T04:52:22;5.91;72.61
74968;SHT30;63523;51.880;12.630;2023-02-01T04:54:47;5.86;73.01
74968;SHT30;63523;51.880;12.630;2023-02-01T04:57:13;5.76;73.30
74968;SHT30;63523;51.880;12.630;2023-02-01T04:59:40;5.79;72.66
74968;SHT30;63523;51.880;12.630;2023-02-01T05:02:05;5.70;72.54
74968;SHT30;63523;51.880;12.630;2023-02-01T05:04:31;5.65;73.13
74968;SHT30;63523;51.880;12.630;2023-02-01T05:06:59;5.76;72.22
74968;SHT30;63523;51.880;12.630;2023-02-01T05:09:25;5.67;72.36
74968;SHT30;63523;51.880;12.630;2023-02-01T05:11:50;5.80;71.60
74968;SHT30;63523;51.880;12.630;2023-02-01T05:14:34;5.80;71.28
74968;SHT30;63523;51.880;12.630;2023-02-01T05:17:00;5.70;71.63
74968;SHT30;63523;51.880;12.630;2023-02-01T05:19:25;5.60;72.54
74968;SHT30;63523;51.880;12.630;2023-02-01T05:21:51;5.60;72.02
74968;SHT30;63523;51.880;12.630;2023-02-01T05:24:16;5.60;72.41
74968;SHT30;63523;51.880;12.630;2023-02-01T05:26:46;5.59;72.48
74968;SHT30;63523;51.880;12.630;2023-02-01T05:29:13;5.52;72.75
74968;SHT30;63523;51.880;12.630;2023-02-01T05:31:39;5.46;72.51
74968;SHT30;63523;51.880;12.630;2023-02-01T05:34:05;5.48;72.99
74968;SHT30;63523;51.880;12.630;2023-02-01T05:36:32;5.62;71.90
74968;SHT30;63523;51.880;12.630;2023-02-01T05:38:57;5.65;72.40
74968;SHT30;63523;51.880;12.630;2023-02-01T05:41:23;5.59;72.36
74968;SHT30;63523;51.880;12.630;2023-02-01T05:43:48;5.56;72.19
74968;SHT30;63523;51.880;12.630;2023-02-01T05:46:14;5.42;72.80
74968;SHT30;63523;51.880;12.630;2023-02-01T05:48:40;5.28;73.21
74968;SHT30;63523;51.880;12.630;2023-02-01T05:51:06;5.27;73.19
74968;SHT30;63523;51.880;12.630;2023-02-01T05:53:31;5.30;73.41
74968;SHT30;63523;51.880;12.630;2023-02-01T05:55:57;5.23;73.37
74968;SHT30;63523;51.880;12.630;2023-02-01T05:58:22;5.30;73.46
74968;SHT30;63523;51.880;12.630;2023-02-01T06:00:48;5.32;73.67
74968;SHT30;63523;51.880;12.630;2023-02-01T06:03:13;5.27;73.43
74968;SHT30;63523;51.880;12.630;2023-02-01T06:05:39;5.30;73.64
74968;SHT30;63523;51.880;12.630;2023-02-01T06:08:05;5.25;74.23
74968;SHT30;63523;51.880;12.630;2023-02-01T06:10:33;5.30;74.09
74968;SHT30;63523;51.880;12.630;2023-02-01T06:12:58;5.36;73.80
74968;SHT30;63523;51.880;12.630;2023-02-01T06:15:24;5.32;75.70
74968;SHT30;63523;51.880;12.630;2023-02-01T06:17:49;5.27;76.34
74968;SHT30;63523;51.880;12.630;2023-02-01T06:20:15;5.18;77.06
74968;SHT30;63523;51.880;12.630;2023-02-01T06:22:41;5.08;77.53
74968;SHT30;63523;51.880;12.630;2023-02-01T06:25:08;5.07;77.85
74968;SHT30;63523;51.880;12.630;2023-02-01T06:27:34;5.06;78.38
74968;SHT30;63523;51.880;12.630;2023-02-01T06:29:59;5.06;78.02
74968;SHT30;63523;51.880;12.630;2023-02-01T06:32:25;5.13;78.23
74968;SHT30;63523;51.880;12.630;2023-02-01T06:34:51;5.13;78.16
74968;SHT30;63523;51.880;12.630;2023-02-01T06:37:21;5.13;78.35
74968;SHT30;63523;51.880;12.630;2023-02-01T06:39:48;5.25;78.00
74968;SHT30;63523;51.880;12.630;2023-02-01T06:42:14;5.28;77.99
74968;SHT30;63523;51.880;12.630;2023-02-01T06:44:39;5.20;78.90
74968;SHT30;63523;51.880;12.630;2023-02-01T06:47:05;5.11;78.91
74968;SHT30;63523;51.880;12.630;2023-02-01T06:49:31;5.18;78.57
74968;SHT30;63523;51.880;12.630;2023-02-01T06:51:56;5.17;78.82
74968;SHT30;63523;51.880;12.630;2023-02-01T06:54:22;5.21;78.99
74968;SHT30;63523;51.880;12.630;2023-02-01T06:56:47;5.20;78.61
74968;SHT30;63523;51.880;12.630;2023-02-01T06:59:13;5.17;78.75
74968;SHT30;63523;51.880;12.630;2023-02-01T07:01:38;5.24;78.48
74968;SHT30;63523;51.880;12.630;2023-02-01T07:04:04;5.20;78.73
74968;SHT30;63523;51.880;12.630;2023-02-01T07:06:29;5.14;78.92
74968;SHT30;63523;51.880;12.630;2023-02-01T07:08:55;5.08;79.21
74968;SHT30;63523;51.880;12.630;2023-02-01T07:11:22;5.07;78.96
74968;SHT30;63523;51.880;12.630;2023-02-01T07:13:47;5.10;78.97
74968;SHT30;63523;51.880;12.630;2023-02-01T07:16:16;5.17;79.01
74968;SHT30;63523;51.880;12.630;2023-02-01T07:18:41;5.14;80.14
74968;SHT30;63523;51.880;12.630;2023-02-01T07:21:07;5.06;80.27
74968;SHT30;63523;51.880;12.630;2023-02-01T07:23:33;4.94;80.81
74968;SHT30;63523;51.880;12.630;2023-02-01T07:26:01;4.80;81.95
74968;SHT30;63523;51.880;12.630;2023-02-01T07:28:29;4.70;82.56
74968;SHT30;63523;51.880;12.630;2023-02-01T07:31:02;4.65;82.97
74968;SHT30;63523;51.880;12.630;2023-02-01T07:33:28;4.68;83.00
74968;SHT30;63523;51.880;12.630;2023-02-01T07:35:56;4.65;83.30
74968;SHT30;63523;51.880;12.630;2023-02-01T07:38:22;4.72;83.33
74968;SHT30;63523;51.880;12.630;2023-02-01T07:40:49;4.70;83.78
74968;SHT30;63523;51.880;12.630;2023-02-01T07:43:15;4.70;83.84
74968;SHT30;63523;51.880;12.630;2023-02-01T07:45:40;4.79;83.07
74968;SHT30;63523;51.880;12.630;2023-02-01T07:48:06;4.83;83.25
74968;SHT30;63523;51.880;12.630;2023-02-01T07:50:32;4.87;83.39
74968;SHT30;63523;51.880;12.630;2023-02-01T07:53:01;4.83;83.10
74968;SHT30;63523;51.880;12.630;2023-02-01T07:55:27;4.72;83.92
74968;SHT30;63523;51.880;12.630;2023-02-01T07:57:52;4.68;83.66
74968;SHT30;63523;51.880;12.630;2023-02-01T08:00:18;4.72;83.69
74968;SHT30;63523;51.880;12.630;2023-02-01T08:03:04;4.70;83.50
74968;SHT30;63523;51.880;12.630;2023-02-01T08:05:30;4.70;83.78
74968;SHT30;63523;51.880;12.630;2023-02-01T08:07:55;4.75;83.45
74968;SHT30;63523;51.880;12.630;2023-02-01T08:10:21;4.70;83.38
74968;SHT30;63523;51.880;12.630;2023-02-01T08:12:46;4.83;83.33
74968;SHT30;63523;51.880;12.630;2023-02-01T08:15:16;4.77;83.18
74968;SHT30;63523;51.880;12.630;2023-02-01T08:17:48;4.90;83.08
74968;SHT30;63523;51.880;12.630;2023-02-01T08:20:14;4.79;84.35
74968;SHT30;63523;51.880;12.630;2023-02-01T08:22:39;4.81;85.29
74968;SHT30;63523;51.880;12.630;2023-02-01T08:25:05;4.87;84.84
74968;SHT30;63523;51.880;12.630;2023-02-01T08:27:35;4.73;85.32
74968;SHT30;63523;51.880;12.630;2023-02-01T08:30:01;4.62;85.41
74968;SHT30;63523;51.880;12.630;2023-02-01T08:32:27;4.58;86.73
74968;SHT30;63523;51.880;12.630;2023-02-01T08:34:52;4.55;87.15
74968;SHT30;63523;51.880;12.630;2023-02-01T08:37:18;4.49;86.47
74968;SHT30;63523;51.880;12.630;2023-02-01T08:39:43;4.42;87.53
74968;SHT30;63523;51.880;12.630;2023-02-01T08:42:11;4.45;87.17
74968;SHT30;63523;51.880;12.630;2023-02-01T08:44:55;4.44;87.13
74968;SHT30;63523;51.880;12.630;2023-02-01T08:47:21;4.46;87.46
74968;SHT30;63523;51.880;12.630;2023-02-01T08:49:46;4.55;87.30
74968;SHT30;63523;51.880;12.630;2023-02-01T08:52:12;4.73;86.56
74968;SHT30;63523;51.880;12.630;2023-02-01T08:54:37;4.76;86.53
74968;SHT30;63523;51.880;12.630;2023-02-01T08:57:05;4.80;86.74
74968;SHT30;63523;51.880;12.630;2023-02-01T08:59:30;4.80;86.21
74968;SHT30;63523;51.880;12.630;2023-02-01T09:01:56;4.84;86.72
74968;SHT30;63523;51.880;12.630;2023-02-01T09:04:21;4.89;86.76
74968;SHT30;63523;51.880;12.630;2023-02-01T09:06:47;4.94;86.81
74968;SHT30;63523;51.880;12.630;2023-02-01T09:09:12;4.93;87.31
74968;SHT30;63523;51.880;12.630;2023-02-01T09:11:38;4.90;86.63
74968;SHT30;63523;51.880;12.630;2023-02-01T09:14:03;4.86;86.76
74968;SHT30;63523;51.880;12.630;2023-02-01T09:16:29;4.75;86.94
74968;SHT30;63523;51.880;12.630;2023-02-01T09:18:55;4.79;87.60
74968;SHT30;63523;51.880;12.630;2023-02-01T09:21:20;4.80;87.11
74968;SHT30;63523;51.880;12.630;2023-02-01T09:23:46;5.00;85.24
74968;SHT30;63523;51.880;12.630;2023-02-01T09:26:14;4.94;86.19
74968;SHT30;63523;51.880;12.630;2023-02-01T09:28:42;5.08;85.41
74968;SHT30;63523;51.880;12.630;2023-02-01T09:31:08;5.15;85.37
74968;SHT30;63523;51.880;12.630;2023-02-01T09:33:33;5.21;85.51
74968;SHT30;63523;51.880;12.630;2023-02-01T09:36:00;5.31;85.04
74968;SHT30;63523;51.880;12.630;2023-02-01T09:38:26;5.28;85.03
74968;SHT30;63523;51.880;12.630;2023-02-01T09:40:53;5.36;84.93
74968;SHT30;63523;51.880;12.630;2023-02-01T09:43:37;5.43;84.87
74968;SHT30;63523;51.880;12.630;2023-02-01T09:48:36;5.45;83.16
74968;SHT30;63523;51.880;12.630;2023-02-01T09:51:05;5.49;83.27
74968;SHT30;63523;51.880;12.630;2023-02-01T09:53:38;5.58;82.81
74968;SHT30;63523;51.880;12.630;2023-02-01T09:56:21;5.56;82.79
74968;SHT30;63523;51.880;12.630;2023-02-01T09:58:56;5.60;82.50
74968;SHT30;63523;51.880;12.630;2023-02-01T10:01:25;5.69;82.19
74968;SHT30;63523;51.880;12.630;2023-02-01T10:03:56;5.71;82.35
74968;SHT30;63523;51.880;12.630;2023-02-01T10:07:13;5.83;81.83
74968;SHT30;63523;51.880;12.630;2023-02-01T10:09:54;5.87;81.86
74968;SHT30;63523;51.880;12.630;2023-02-01T10:12:57;5.89;82.20
74968;SHT30;63523;51.880;12.630;2023-02-01T10:15:33;5.85;82.24
74968;SHT30;63523;51.880;12.630;2023-02-01T10:25:55;6.15;80.27
74968;SHT30;63523;51.880;12.630;2023-02-01T10:28:22;6.21;80.16
74968;SHT30;63523;51.880;12.630;2023-02-01T10:30:53;6.11;80.71
74968;SHT30;63523;51.880;12.630;2023-02-01T10:33:41;6.32;78.95
74968;SHT30;63523;51.880;12.630;2023-02-01T10:38:47;6.20;79.07
74968;SHT30;63523;51.880;12.630;2023-02-01T10:41:22;6.20;79.88
74968;SHT30;63523;51.880;12.630;2023-02-01T10:43:54;6.22;79.76
74968;SHT30;63523;51.880;12.630;2023-02-01T10:46:25;6.20;80.17
74968;SHT30;63523;51.880;12.630;2023-02-01T10:48:53;6.25;79.31
74968;SHT30;63523;51.880;12.630;2023-02-01T10:51:30;6.45;78.64
74968;SHT30;63523;51.880;12.630;2023-02-01T10:54:16;6.45;79.50
74968;SHT30;63523;51.880;12.630;2023-02-01T10:56:43;6.54;77.48
74968;SHT30;63523;51.880;12.630;2023-02-01T10:59:18;6.43;78.28
74968;SHT30;63523;51.880;12.630;2023-02-01T11:01:48;6.42;78.43
74968;SHT30;63523;51.880;12.630;2023-02-01T11:04:18;6.36;80.23
74968;SHT30;63523;51.880;12.630;2023-02-01T11:09:41;6.13;79.82
74968;SHT30;63523;51.880;12.630;2023-02-01T11:12:23;6.18;79.76
74968;SHT30;63523;51.880;12.630;2023-02-01T11:14:50;6.10;80.11
74968;SHT30;63523;51.880;12.630;2023-02-01T11:17:17;6.06;78.98
74968;SHT30;63523;51.880;12.630;2023-02-01T11:19:57;5.83;81.87
74968;SHT30;63523;51.880;12.630;2023-02-01T11:22:24;5.62;83.35
74968;SHT30;63523;51.880;12.630;2023-02-01T11:24:50;5.59;83.76
74968;SHT30;63523;51.880;12.630;2023-02-01T11:27:21;5.48;84.23
74968;SHT30;63523;51.880;12.630;2023-02-01T11:29:50;5.30;85.61
74968;SHT30;63523;51.880;12.630;2023-02-01T11:32:18;5.23;86.60
74968;SHT30;63523;51.880;12.630;2023-02-01T11:34:52;5.30;87.41
74968;SHT30;63523;51.880;12.630;2023-02-01T11:37:26;5.35;86.71
74968;SHT30;63523;51.880;12.630;2023-02-01T11:40:01;5.31;87.13
74968;SHT30;63523;51.880;12.630;2023-02-01T11:42:29;5.42;86.93
74968;SHT30;63523;51.880;12.630;2023-02-01T11:45:20;5.42;86.88
74968;SHT30;63523;51.880;12.630;2023-02-01T11:47:51;5.34;87.24
74968;SHT30;63523;51.880;12.630;2023-02-01T11:50:25;5.41;87.61
74968;SHT30;63523;51.880;12.630;2023-02-01T12:01:33;5.34;87.79
74968;SHT30;63523;51.880;12.630;2023-02-01T12:04:12;5.31;87.71
74968;SHT30;63523;51.880;12.630;2023-02-01T12:06:52;5.27;87.69
74968;SHT30;63523;51.880;12.630;2023-02-01T12:09:40;5.30;88.22
74968;SHT30;63523;51.880;12.630;2023-02-01T12:12:24;5.42;87.13
74968;SHT30;63523;51.880;12.630;2023-02-01T12:15:03;5.31;88.05
74968;SHT30;63523;51.880;12.630;2023-02-01T12:17:41;5.23;88.38
74968;SHT30;63523;51.880;12.630;2023-02-01T12:20:21;5.17;88.38
74968;SHT30;63523;51.880;12.630;2023-02-01T12:40:05;5.17;89.41
74968;SHT30;63523;51.880;12.630;2023-02-01T12:42:43;5.20;89.57
74968;SHT30;63523;51.880;12.630;2023-02-01T12:45:20;5.23;89.43
74968;SHT30;63523;51.880;12.630;2023-02-01T12:47:52;5.25;89.66
74968;SHT30;63523;51.880;12.630;2023-02-01T12:50:33;5.34;89.11
74968;SHT30;63523;51.880;12.630;2023-02-01T12:53:26;5.34;89.54
74968;SHT30;63523;51.880;12.630;2023-02-01T12:55:55;5.39;89.13
74968;SHT30;63523;51.880;12.630;2023-02-01T13:01:03;5.69;89.02
74968;SHT30;63523;51.880;12.630;2023-02-01T13:03:42;5.86;88.79
74968;SHT30;63523;51.880;12.630;2023-02-01T13:06:16;5.89;87.68
74968;SHT30;63523;51.880;12.630;2023-02-01T13:11:35;6.06;87.18
74968;SHT30;63523;51.880;12.630;2023-02-01T13:14:29;6.13;84.87
74968;SHT30;63523;51.880;12.630;2023-02-01T13:17:14;6.22;85.23
74968;SHT30;63523;51.880;12.630;2023-02-01T13:20:06;6.42;82.40
74968;SHT30;63523;51.880;12.630;2023-02-01T13:22:46;6.38;81.59
74968;SHT30;63523;51.880;12.630;2023-02-01T13:27:53;6.49;82.17
74968;SHT30;63523;51.880;12.630;2023-02-01T13:41:32;6.53;77.74
74968;SHT30;63523;51.880;12.630;2023-02-01T13:44:05;6.38;77.98
74968;SHT30;63523;51.880;12.630;2023-02-01T13:46:43;6.48;77.88
74968;SHT30;63523;51.880;12.630;2023-02-01T13:49:25;6.50;76.31
74968;SHT30;63523;51.880;12.630;2023-02-01T13:51:53;6.45;75.25
74968;SHT30;63523;51.880;12.630;2023-02-01T13:54:49;6.43;75.85
74968;SHT30;63523;51.880;12.630;2023-02-01T14:00:31;6.18;74.65
74968;SHT30;63523;51.880;12.630;2023-02-01T14:21:30;6.00;78.65
74968;SHT30;63523;51.880;12.630;2023-02-01T14:26:48;6.01;77.62
74968;SHT30;63523;51.880;12.630;2023-02-01T14:34:49;5.94;76.25
74968;SHT30;63523;51.880;12.630;2023-02-01T14:50:47;5.77;77.03
74968;SHT30;63523;51.880;12.630;2023-02-01T14:53:20;5.76;78.72
74968;SHT30;63523;51.880;12.630;2023-02-01T14:56:04;5.73;80.06
74968;SHT30;63523;51.880;12.630;2023-02-01T15:14:25;5.71;81.04
74968;SHT30;63523;51.880;12.630;2023-02-01T15:16:50;5.62;81.16
74968;SHT30;63523;51.880;12.630;2023-02-01T15:19:21;5.55;81.79
74968;SHT30;63523;51.880;12.630;2023-02-01T15:21:53;5.45;82.88
74968;SHT30;63523;51.880;12.630;2023-02-01T15:24:30;5.45;84.05
74968;SHT30;63523;51.880;12.630;2023-02-01T15:27:02;5.45;84.08
74968;SHT30;63523;51.880;12.630;2023-02-01T15:29:28;5.36;84.42
74968;SHT30;63523;51.880;12.630;2023-02-01T15:31:58;5.18;85.50
74968;SHT30;63523;51.880;12.630;2023-02-01T15:34:44;5.01;86.70
74968;SHT30;63523;51.880;12.630;2023-02-01T15:37:14;4.94;86.88
74968;SHT30;63523;51.880;12.630;2023-02-01T15:40:04;5.00;86.14
74968;SHT30;63523;51.880;12.630;2023-02-01T15:42:29;4.98;85.95
74968;SHT30;63523;51.880;12.630;2023-02-01T15:44:55;4.93;86.47
74968;SHT30;63523;51.880;12.630;2023-02-01T15:47:28;4.97;86.07
74968;SHT30;63523;51.880;12.630;2023-02-01T15:49:57;4.86;86.24
74968;SHT30;63523;51.880;12.630;2023-02-01T15:52:38;4.90;86.55
74968;SHT30;63523;51.880;12.630;2023-02-01T15:55:08;4.89;86.68
74968;SHT30;63523;51.880;12.630;2023-02-01T15:57:42;4.87;86.42
74968;SHT30;63523;51.880;12.630;2023-02-01T16:00:26;4.87;85.74
74968;SHT30;63523;51.880;12.630;2023-02-01T16:02:55;5.01;85.03
74968;SHT30;63523;51.880;12.630;2023-02-01T16:05:31;4.94;85.49
74968;SHT30;63523;51.880;12.630;2023-02-01T16:08:10;4.96;83.99
74968;SHT30;63523;51.880;12.630;2023-02-01T16:10:42;4.83;85.11
74968;SHT30;63523;51.880;12.630;2023-02-01T16:13:07;4.91;84.77
74968;SHT30;63523;51.880;12.630;2023-02-01T16:15:33;5.07;83.25
74968;SHT30;63523;51.880;12.630;2023-02-01T16:17:58;5.01;83.14
74968;SHT30;63523;51.880;12.630;2023-02-01T16:20:24;4.94;82.53
74968;SHT30;63523;51.880;12.630;2023-02-01T16:22:49;4.89;83.50
74968;SHT30;63523;51.880;12.630;2023-02-01T16:25:15;4.83;83.92
74968;SHT30;63523;51.880;12.630;2023-02-01T16:27:40;5.01;82.56
74968;SHT30;63523;51.880;12.630;2023-02-01T16:30:06;4.96;82.39
74968;SHT30;63523;51.880;12.630;2023-02-01T16:32:35;4.90;82.90
74968;SHT30;63523;51.880;12.630;2023-02-01T16:35:04;4.79;82.33
74968;SHT30;63523;51.880;12.630;2023-02-01T16:37:30;4.61;83.32
74968;SHT30;63523;51.880;12.630;2023-02-01T16:39:58;4.53;83.15
74968;SHT30;63523;51.880;12.630;2023-02-01T16:42:27;4.56;82.93
74968;SHT30;63523;51.880;12.630;2023-02-01T16:44:55;4.55;82.00
74968;SHT30;63523;51.880;12.630;2023-02-01T16:47:21;4.45;82.34
74968;SHT30;63523;51.880;12.630;2023-02-01T16:49:48;4.32;82.92
74968;SHT30;63523;51.880;12.630;2023-02-01T16:52:19;4.24;82.91
74968;SHT30;63523;51.880;12.630;2023-02-01T16:54:45;4.08;83.59
74968;SHT30;63523;51.880;12.630;2023-02-01T16:57:12;3.90;84.44
74968;SHT30;63523;51.880;12.630;2023-02-01T16:59:39;3.89;84.17
74968;SHT30;63523;51.880;12.630;2023-02-01T17:02:04;3.97;83.73
74968;SHT30;63523;51.880;12.630;2023-02-01T17:04:30;3.98;83.31
74968;SHT30;63523;51.880;12.630;2023-02-01T17:06:55;3.91;83.71
74968;SHT30;63523;51.880;12.630;2023-02-01T17:09:23;3.82;83.76
74968;SHT30;63523;51.880;12.630;2023-02-01T17:11:50;3.94;82.83
74968;SHT30;63523;51.880;12.630;2023-02-01T17:14:18;3.87;83.04
74968;SHT30;63523;51.880;12.630;2023-02-01T17:16:46;3.75;83.80
74968;SHT30;63523;51.880;12.630;2023-02-01T17:19:17;3.75;83.64
74968;SHT30;63523;51.880;12.630;2023-02-01T17:21:46;3.76;83.44
74968;SHT30;63523;51.880;12.630;2023-02-01T17:24:15;3.70;83.67
74968;SHT30;63523;51.880;12.630;2023-02-01T17:26:42;3.79;83.72
74968;SHT30;63523;51.880;12.630;2023-02-01T17:29:08;3.85;83.50
74968;SHT30;63523;51.880;12.630;2023-02-01T17:31:37;3.94;83.16
74968;SHT30;63523;51.880;12.630;2023-02-01T17:34:03;3.91;83.60
74968;SHT30;63523;51.880;12.630;2023-02-01T17:36:28;4.00;83.14
74968;SHT30;63523;51.880;12.630;2023-02-01T17:38:54;3.93;83.71
74968;SHT30;63523;51.880;12.630;2023-02-01T17:41:22;3.97;83.46
74968;SHT30;63523;51.880;12.630;2023-02-01T17:43:49;3.86;84.20
74968;SHT30;63523;51.880;12.630;2023-02-01T17:46:17;3.83;84.52
74968;SHT30;63523;51.880;12.630;2023-02-01T17:48:52;3.93;84.39
74968;SHT30;63523;51.880;12.630;2023-02-01T17:51:20;3.91;84.79
74968;SHT30;63523;51.880;12.630;2023-02-01T17:53:46;3.89;85.00
74968;SHT30;63523;51.880;12.630;2023-02-01T17:56:17;3.98;84.93
74968;SHT30;63523;51.880;12.630;2023-02-01T17:58:44;3.89;85.59
74968;SHT30;63523;51.880;12.630;2023-02-01T18:01:15;3.85;86.17
74968;SHT30;63523;51.880;12.630;2023-02-01T18:03:42;3.78;86.59
74968;SHT30;63523;51.880;12.630;2023-02-01T18:06:14;3.90;86.04
74968;SHT30;63523;51.880;12.630;2023-02-01T18:08:40;3.85;86.51
74968;SHT30;63523;51.880;12.630;2023-02-01T18:11:13;3.91;86.13
74968;SHT30;63523;51.880;12.630;2023-02-01T18:13:40;4.08;85.46
74968;SHT30;63523;51.880;12.630;2023-02-01T18:16:05;4.18;85.29
74968;SHT30;63523;51.880;12.630;2023-02-01T18:18:31;4.15;85.46
74968;SHT30;63523;51.880;12.630;2023-02-01T18:20:58;4.13;85.41